SBOSBO MCI / KMCI
Speedbird OnlineSpeedbird Online MCI / KMCI

Kansas City International Airport
14:22 16.8°C

Location Kansas City, United States
Latitude: 39.2976
Longitude: -94.713898
Local Time 14:22 on 23 Feb 2024
UTC -6 hours (America/Chicago)
Currency £1 equals USD 1.27
METAR KMCI 231953Z 30016G29KT 10SM BKN090 16/M02 A2986 RMK AO2 PK WND 33032/1939 SLP111 T01611022
TAF KMCI 231720Z 2318/2418 30012G22KT P6SM SKC FM232300 33009KT P6SM SKC FM241200 VRB06KT P6SM SKC
Weather As Of 23 Feb 2024 14:22
Description Broken clouds
Wind 30 km/h from North-West (300°)
Cloud Cover 75%
Precipitation Rain: none, Snow: none
Sunrise 07:01
Sunset 18:03
Rebooking Midwest and North Texas Winter Weather - 20JAN24 - Customer Guidelines
Rotations During the last 90 days there were
4 flights from MIA
Web Airport Website | Wikipedia
Codes IATA: MCI
ICAO: KMCI
Altitude 313 Meter / 1026 Feet
Distance 6,997 KM / 4,348 Miles
from London.
Runways
RunwayLength (m)Surface
01L3292Concrete
01R2896Concrete
092896Asphalt
19L2896Concrete
19R3292Concrete
272896Asphalt
Radio
TypeDescriptionFrequency
APPAPP120.95
ATISATIS126.625
CLDCLNC DEL135.7
DEPDEP124.7
GNDGND121.65
RDOCOLUMBIA RDO122.65
TWRINTL TWR125.75
UNICUNICOM122.95
Live ATC



Support Speedbird Online

© 2017-2024 Speedbird Online